Time;durP1;ratioP1;P1;durP2;ratioP2;P2;SDS_P1;SDS_P2;PMS_P1;PMS_P2;Temp;Humidity;BMP_temperature;BMP_pressure;BME280_temperature;BME280_humidity;BME280_pressure;Samples;Min_cycle;Max_cycle;Signal;HPM_P1;HPM_P2
2021/08/30 00:00:53;;;;;;;21.17;9.32;;;13.70;99.90;;;;;;5102943;28;20447;-64
2021/08/30 00:03:19;;;;;;;;;;;13.70;99.90;;;;;;5103642;28;20036;-65
2021/08/30 00:05:45;;;;;;;14.15;8.75;;;13.70;99.90;;;;;;5100121;28;19945;-64
2021/08/30 00:08:10;;;;;;;;;;;13.70;99.90;;;;;;5103551;28;20047;-63
2021/08/30 00:10:36;;;;;;;14.23;8.00;;;13.70;99.90;;;;;;5102790;28;19971;-63
2021/08/30 00:13:02;;;;;;;15.27;9.00;;;13.60;99.90;;;;;;5102925;28;20415;-64
2021/08/30 00:15:27;;;;;;;;;;;13.70;99.90;;;;;;5103016;28;20035;-65
2021/08/30 00:17:53;;;;;;;14.65;7.72;;;13.70;99.90;;;;;;5094722;28;19922;-65
2021/08/30 00:20:20;;;;;;;11.50;7.55;;;13.70;99.90;;;;;;5088897;28;20051;-64
2021/08/30 00:22:46;;;;;;;15.32;8.45;;;13.70;99.90;;;;;;5089136;28;20100;-64
2021/08/30 00:25:13;;;;;;;13.27;7.85;;;13.60;99.90;;;;;;5089352;28;20036;-65
2021/08/30 00:27:39;;;;;;;9.75;6.55;;;13.60;99.90;;;;;;5085314;28;20107;-65
2021/08/30 00:30:07;;;;;;;9.80;6.80;;;13.60;99.90;;;;;;5087444;28;20586;-64
2021/08/30 00:32:33;;;;;;;16.33;8.32;;;13.70;99.90;;;;;;5088591;28;20705;-65
2021/08/30 00:34:59;;;;;;;;;;;13.60;99.90;;;;;;5087120;28;20048;-64
2021/08/30 00:37:24;;;;;;;19.63;8.93;;;13.60;99.90;;;;;;5089087;28;20372;-64
2021/08/30 00:39:50;;;;;;;;;;;13.60;99.90;;;;;;5089281;28;20113;-64
2021/08/30 00:42:16;;;;;;;19.77;10.90;;;13.60;99.90;;;;;;5089237;28;19970;-63
2021/08/30 00:44:42;;;;;;;23.13;12.75;;;13.60;99.90;;;;;;5089095;28;20122;-64
2021/08/30 00:47:07;;;;;;;;;;;13.60;99.90;;;;;;5088836;28;20136;-64
2021/08/30 00:49:33;;;;;;;27.17;14.93;;;13.60;99.90;;;;;;5088595;28;20417;-65
2021/08/30 00:51:59;;;;;;;;;;;13.60;99.90;;;;;;5085657;28;20039;-64
2021/08/30 00:54:25;;;;;;;24.10;14.30;;;13.60;99.90;;;;;;5088848;28;20006;-65
2021/08/30 00:56:51;;;;;;;26.05;14.95;;;13.60;99.90;;;;;;5088492;28;20043;-65
2021/08/30 00:59:16;;;;;;;;;;;13.60;99.90;;;;;;5088205;28;20074;-63
2021/08/30 01:01:42;;;;;;;27.05;16.05;;;13.60;99.90;;;;;;5087624;28;20371;-64
2021/08/30 01:04:14;;;;;;;;;;;13.50;99.90;;;;;;5089260;28;20059;-64
2021/08/30 01:06:55;;;;;;;27.73;15.43;;;13.60;99.90;;;;;;5088910;28;19932;-63
2021/08/30 01:09:33;;;;;;;23.38;14.80;;;13.60;99.90;;;;;;5087810;28;20044;-64
2021/08/30 01:12:13;;;;;;;27.05;15.55;;;13.60;99.90;;;;;;5088134;28;20036;-64
2021/08/30 01:14:58;;;;;;;26.10;14.50;;;13.60;99.90;;;;;;5088080;28;20551;-64
2021/08/30 01:17:25;;;;;;;25.15;14.73;;;13.60;99.90;;;;;;5087306;28;20508;-64
2021/08/30 01:20:14;;;;;;;24.45;14.15;;;13.60;99.90;;;;;;5087851;28;20040;-65
2021/08/30 01:22:45;;;;;;;26.63;13.98;;;13.60;99.90;;;;;;5088318;28;20039;-65
2021/08/30 01:25:15;;;;;;;24.10;14.30;;;13.60;99.90;;;;;;5087357;28;20051;-64
2021/08/30 01:27:43;;;;;;;26.17;15.27;;;13.60;99.90;;;;;;5082858;28;20032;-65
2021/08/30 01:30:12;;;;;;;29.08;16.00;;;13.60;99.90;;;;;;5083120;28;20054;-65
2021/08/30 01:32:40;;;;;;;25.80;13.68;;;13.60;99.90;;;;;;5088318;28;20036;-64
2021/08/30 01:35:07;;;;;;;26.73;13.70;;;13.60;99.90;;;;;;5086099;28;20068;-65
2021/08/30 01:37:35;;;;;;;25.55;13.80;;;13.60;99.90;;;;;;5087870;28;20043;-64
2021/08/30 01:40:02;;;;;;;21.73;13.70;;;13.60;99.90;;;;;;5087782;28;20123;-64
2021/08/30 01:42:29;;;;;;;22.90;14.32;;;13.60;99.90;;;;;;5088033;28;20115;-64
2021/08/30 01:44:57;;;;;;;26.67;14.05;;;13.60;99.90;;;;;;5087572;28;20072;-65
2021/08/30 01:47:23;;;;;;;29.38;14.75;;;13.60;99.90;;;;;;5087398;28;20043;-64
2021/08/30 01:50:00;;;;;;;24.70;14.18;;;13.60;99.90;;;;;;5087366;28;20036;-64
2021/08/30 01:52:28;;;;;;;20.35;12.85;;;13.60;99.90;;;;;;5088085;28;20608;-65
2021/08/30 01:54:54;;;;;;;25.55;15.23;;;13.60;99.90;;;;;;5086936;28;20127;-65
2021/08/30 01:57:23;;;;;;;22.77;14.32;;;13.60;99.90;;;;;;5086827;28;20096;-64
2021/08/30 02:02:35;;;;;;;25.73;14.60;;;13.60;99.90;;;;;;5066345;28;20036;-64
2021/08/30 02:05:00;;;;;;;25.23;15.35;;;13.60;99.90;;;;;;5066934;28;20040;-64
2021/08/30 02:07:26;;;;;;;;;;;13.60;99.90;;;;;;5076667;28;20059;-65
2021/08/30 02:09:52;;;;;;;29.90;15.93;;;13.60;99.90;;;;;;5086645;28;19995;-63
2021/08/30 02:12:18;;;;;;;;;;;13.60;99.90;;;;;;5087388;28;20118;-64
2021/08/30 02:14:43;;;;;;;36.22;19.85;;;13.60;99.90;;;;;;5087126;28;19961;-64
2021/08/30 02:17:11;;;;;;;;;;;13.50;99.90;;;;;;5087085;28;20510;-64
2021/08/30 02:19:51;;;;;;;;;;;13.60;99.90;;;;;;5087674;28;19916;-64
2021/08/30 02:22:28;;;;;;;27.80;15.52;;;13.60;99.90;;;;;;5086959;28;19915;-64
2021/08/30 02:25:02;;;;;;;29.73;17.20;;;13.60;99.90;;;;;;5087221;28;20050;-65
2021/08/30 02:27:39;;;;;;;36.10;18.17;;;13.60;99.90;;;;;;5084513;28;20060;-64
2021/08/30 02:30:08;;;;;;;;;;;13.60;99.90;;;;;;5085463;28;20106;-64
2021/08/30 02:32:36;;;;;;;35.47;18.67;;;13.60;99.90;;;;;;5086324;28;20358;-64
2021/08/30 02:35:05;;;;;;;28.70;17.10;;;13.50;99.90;;;;;;5084665;28;20040;-64
2021/08/30 02:37:35;;;;;;;31.15;18.83;;;13.50;99.90;;;;;;5086825;28;20498;-64
2021/08/30 02:40:03;;;;;;;35.85;18.50;;;13.50;99.90;;;;;;5085699;28;20040;-64
2021/08/30 02:42:31;;;;;;;31.50;17.23;;;13.60;99.90;;;;;;5086570;28;20048;-64
2021/08/30 02:44:57;;;;;;;36.10;18.85;;;13.60;99.90;;;;;;5086375;28;20032;-64
2021/08/30 02:47:23;;;;;;;34.25;18.17;;;13.60;99.90;;;;;;5085972;28;20508;-65
2021/08/30 02:49:51;;;;;;;35.60;19.90;;;13.60;99.90;;;;;;5080116;28;20040;-64
2021/08/30 02:52:19;;;;;;;31.75;18.75;;;13.60;99.90;;;;;;5066362;28;20040;-64
2021/08/30 02:54:47;;;;;;;38.40;19.98;;;13.50;99.90;;;;;;5066351;28;20119;-64
2021/08/30 02:57:13;;;;;;;35.35;18.63;;;13.50;99.90;;;;;;5066019;28;20048;-64
2021/08/30 02:59:40;;;;;;;38.63;19.75;;;13.50;99.90;;;;;;5081695;28;20044;-64
2021/08/30 03:02:07;;;;;;;32.42;17.65;;;13.50;99.90;;;;;;5086348;28;20048;-65
2021/08/30 03:04:35;;;;;;;30.17;18.23;;;13.50;99.90;;;;;;5085166;28;20044;-64
2021/08/30 03:07:02;;;;;;;33.63;19.15;;;13.50;99.90;;;;;;5087126;28;20864;-64
2021/08/30 03:09:28;;;;;;;39.67;20.00;;;13.50;99.90;;;;;;5083479;28;20040;-64
2021/08/30 03:11:55;;;;;;;36.92;20.02;;;13.50;99.90;;;;;;5077126;28;20745;-65
2021/08/30 03:14:23;;;;;;;34.42;18.20;;;13.50;99.90;;;;;;5087519;28;20080;-66
2021/08/30 03:16:55;;;;;;;31.73;19.52;;;13.50;99.90;;;;;;5086255;28;20058;-64
2021/08/30 03:19:23;;;;;;;33.60;19.60;;;13.50;99.90;;;;;;5086875;28;20044;-65
2021/08/30 03:21:50;;;;;;;34.92;19.20;;;13.50;99.90;;;;;;5086052;28;20374;-65
2021/08/30 03:24:19;;;;;;;30.83;18.33;;;13.50;99.90;;;;;;5086296;28;20043;-65
2021/08/30 03:26:46;;;;;;;35.35;19.83;;;13.50;99.90;;;;;;5086270;28;20055;-65
2021/08/30 03:29:12;;;;;;;38.83;20.58;;;13.50;99.90;;;;;;5080437;28;20118;-64
2021/08/30 03:31:38;;;;;;;;;;;13.50;99.90;;;;;;5086029;28;20618;-64
2021/08/30 03:34:05;;;;;;;31.90;18.77;;;13.50;99.90;;;;;;5086324;28;20057;-64
2021/08/30 03:36:31;;;;;;;33.25;18.58;;;13.40;99.90;;;;;;5084250;28;20056;-64
2021/08/30 03:38:57;;;;;;;;;;;13.40;99.90;;;;;;5086511;28;20043;-64
2021/08/30 03:41:23;;;;;;;29.80;17.73;;;13.40;99.90;;;;;;5086143;28;19921;-64
2021/08/30 03:43:50;;;;;;;30.48;19.33;;;13.50;99.90;;;;;;5086790;28;20044;-64
2021/08/30 03:46:16;;;;;;;29.92;18.15;;;13.50;99.90;;;;;;5085658;28;20036;-64
2021/08/30 03:48:42;;;;;;;29.23;18.20;;;13.50;99.90;;;;;;5086251;28;20848;-65
2021/08/30 03:51:10;;;;;;;32.53;19.50;;;13.40;99.90;;;;;;5085871;28;20059;-65
2021/08/30 03:53:37;;;;;;;32.63;18.60;;;13.40;99.90;;;;;;5088396;28;20123;-64
2021/08/30 03:56:04;;;;;;;42.63;18.95;;;13.50;99.90;;;;;;5086833;28;20044;-65
2021/08/30 03:58:31;;;;;;;33.17;19.70;;;13.50;99.90;;;;;;5084721;28;20426;-63
2021/08/30 04:01:03;;;;;;;35.35;19.52;;;13.40;99.90;;;;;;5088876;28;20559;-64
2021/08/30 04:03:28;;;;;;;36.63;21.13;;;13.40;99.90;;;;;;5088942;28;20404;-63
2021/08/30 04:05:54;;;;;;;;;;;13.40;99.90;;;;;;5089927;28;20055;-64
2021/08/30 04:08:20;;;;;;;32.10;19.77;;;13.40;99.90;;;;;;5089720;28;19995;-64
2021/08/30 04:10:47;;;;;;;;;;;13.40;99.90;;;;;;5088057;28;20040;-64
2021/08/30 04:13:13;;;;;;;40.35;20.83;;;13.30;99.90;;;;;;5089630;28;19930;-64
2021/08/30 04:15:38;;;;;;;;;;;13.30;99.90;;;;;;5088620;28;20127;-64
2021/08/30 04:18:04;;;;;;;40.33;21.88;;;13.30;99.90;;;;;;5088314;28;19927;-64
2021/08/30 04:20:29;;;;;;;;;;;13.30;99.90;;;;;;5089744;28;20119;-67
2021/08/30 04:22:55;;;;;;;41.85;22.83;;;13.30;99.90;;;;;;5089616;28;20010;-64
2021/08/30 04:25:20;;;;;;;;;;;13.30;99.90;;;;;;5089119;28;20065;-65
2021/08/30 04:27:46;;;;;;;36.33;20.75;;;13.30;99.90;;;;;;5087089;28;20398;-64
2021/08/30 04:30:12;;;;;;;;;;;13.30;99.90;;;;;;5084217;28;20051;-64
2021/08/30 04:32:38;;;;;;;35.03;19.42;;;13.30;99.90;;;;;;5083761;28;19919;-64
2021/08/30 04:35:06;;;;;;;47.88;24.17;;;13.30;99.90;;;;;;5083816;28;20040;-64
2021/08/30 04:37:32;;;;;;;42.42;23.98;;;13.30;99.90;;;;;;5087744;28;20040;-64
2021/08/30 04:39:58;;;;;;;;;;;13.30;99.90;;;;;;5089027;28;20040;-64
2021/08/30 04:42:23;;;;;;;38.35;21.27;;;13.30;99.90;;;;;;5088816;28;19973;-64
2021/08/30 04:44:52;;;;;;;;;;;13.30;99.90;;;;;;5089184;28;20040;-64
2021/08/30 04:47:18;;;;;;;34.15;21.02;;;13.30;99.90;;;;;;5084570;28;20022;-64
2021/08/30 04:49:43;;;;;;;;;;;13.30;99.90;;;;;;5089011;28;20124;-63
2021/08/30 04:52:09;;;;;;;36.25;21.25;;;13.30;99.90;;;;;;5088679;28;20391;-64
2021/08/30 04:54:34;;;;;;;;;;;13.30;99.90;;;;;;5089577;28;20093;-64
2021/08/30 04:57:00;;;;;;;36.38;21.90;;;13.30;99.90;;;;;;5088470;28;19919;-64
2021/08/30 04:59:25;;;;;;;;;;;13.30;99.90;;;;;;5083893;28;20060;-64
2021/08/30 05:01:51;;;;;;;35.33;21.23;;;13.30;99.90;;;;;;5087057;28;19955;-64
2021/08/30 05:04:17;;;;;;;;;;;13.30;99.90;;;;;;5089626;28;20036;-64
2021/08/30 05:06:42;;;;;;;32.53;19.75;;;13.30;99.90;;;;;;5088962;28;19920;-64
2021/08/30 05:09:08;;;;;;;;;;;13.30;99.90;;;;;;5089124;28;20032;-64
2021/08/30 05:11:37;;;;;;;42.75;21.73;;;13.30;99.90;;;;;;5070334;28;20371;-64
2021/08/30 05:14:03;;;;;;;36.95;20.80;;;13.30;99.90;;;;;;5088210;28;20111;-64
2021/08/30 05:16:28;;;;;;;;;;;13.30;99.90;;;;;;5087981;28;20834;-64
2021/08/30 05:18:54;;;;;;;34.35;20.55;;;13.40;99.90;;;;;;5087752;28;20284;-64
2021/08/30 05:21:19;;;;;;;;;;;13.40;99.90;;;;;;5088364;28;20040;-64
2021/08/30 05:23:45;;;;;;;38.80;22.33;;;13.40;99.90;;;;;;5087853;28;19916;-64
2021/08/30 05:26:11;;;;;;;;;;;13.40;99.90;;;;;;5088123;28;20123;-64
2021/08/30 05:28:37;;;;;;;37.35;21.70;;;13.40;99.90;;;;;;5082030;28;19920;-64
2021/08/30 05:31:03;;;;;;;36.47;22.48;;;13.30;99.90;;;;;;5087239;28;20028;-64
2021/08/30 05:33:28;;;;;;;;;;;13.40;99.90;;;;;;5087558;28;20032;-64
2021/08/30 05:35:54;;;;;;;34.30;20.45;;;13.40;99.90;;;;;;5087619;28;19912;-64
2021/08/30 05:38:19;;;;;;;;;;;13.40;99.90;;;;;;5083523;28;20752;-64
2021/08/30 05:40:45;;;;;;;36.53;20.45;;;13.40;99.90;;;;;;5066957;28;19923;-64
2021/08/30 05:43:10;;;;;;;;;;;13.40;99.90;;;;;;5066225;28;20713;-64
2021/08/30 05:45:36;;;;;;;31.42;19.95;;;13.40;99.90;;;;;;5066584;28;19927;-65
2021/08/30 05:48:02;;;;;;;;;;;13.40;99.90;;;;;;5067697;28;20044;-64
2021/08/30 05:50:28;;;;;;;34.10;21.02;;;13.40;99.90;;;;;;5072643;28;19959;-64
2021/08/30 05:52:53;;;;;;;;;;;13.40;99.90;;;;;;5088026;28;20032;-64
2021/08/30 05:55:19;;;;;;;32.33;19.05;;;13.40;99.90;;;;;;5087632;28;19920;-64
2021/08/30 05:57:45;;;;;;;43.85;22.58;;;13.40;99.90;;;;;;5082809;28;20039;-64
2021/08/30 06:00:11;;;;;;;;;;;13.40;99.90;;;;;;5084911;28;20048;-65
2021/08/30 06:02:37;;;;;;;40.75;21.85;;;13.30;99.90;;;;;;5083470;28;19923;-65
2021/08/30 06:05:03;;;;;;;;;;;13.40;99.90;;;;;;5087352;28;20036;-65
2021/08/30 06:07:28;;;;;;;35.70;19.75;;;13.40;99.90;;;;;;5086950;28;19923;-65
2021/08/30 06:09:54;;;;;;;;;;;13.40;99.90;;;;;;5086413;28;20499;-65
2021/08/30 06:12:19;;;;;;;36.83;20.30;;;13.40;99.90;;;;;;5084399;28;19930;-64
2021/08/30 06:14:45;;;;;;;;;;;13.40;99.90;;;;;;5086818;28;20075;-64
2021/08/30 06:17:10;;;;;;;33.40;18.73;;;13.40;99.90;;;;;;5086481;28;19929;-64
2021/08/30 06:19:36;;;;;;;;;;;13.40;99.90;;;;;;5087311;28;20036;-65
2021/08/30 06:22:02;;;;;;;32.20;19.42;;;13.40;99.90;;;;;;5086991;28;20392;-65
2021/08/30 06:24:27;;;;;;;;;;;13.40;99.90;;;;;;5087161;28;20044;-66
2021/08/30 06:26:53;;;;;;;37.67;20.35;;;13.40;99.90;;;;;;5085384;28;20026;-65
2021/08/30 06:29:18;;;;;;;;;;;13.40;99.90;;;;;;5082114;28;20040;-65
2021/08/30 06:31:44;;;;;;;30.73;18.73;;;13.40;99.90;;;;;;5086575;28;19920;-65
2021/08/30 06:34:09;;;;;;;;;;;13.40;99.90;;;;;;5087718;28;20040;-65
2021/08/30 06:36:35;;;;;;;35.42;20.02;;;13.50;99.90;;;;;;5086248;28;19915;-64
2021/08/30 06:39:01;;;;;;;;;;;13.50;99.90;;;;;;5088158;28;20439;-65
2021/08/30 06:41:27;;;;;;;31.73;18.65;;;13.40;99.90;;;;;;5081650;28;19923;-64
2021/08/30 06:43:54;;;;;;;33.22;19.05;;;13.40;99.90;;;;;;5082775;28;20039;-64
2021/08/30 06:46:19;;;;;;;29.75;19.02;;;13.40;99.90;;;;;;5082989;28;20496;-64
2021/08/30 06:48:45;;;;;;;;;;;13.40;99.90;;;;;;5086320;28;20047;-64
2021/08/30 06:51:11;;;;;;;32.03;19.50;;;13.50;99.90;;;;;;5085252;28;19916;-64
2021/08/30 06:53:36;;;;;;;;;;;13.40;99.90;;;;;;5085739;28;20039;-66
2021/08/30 06:56:02;;;;;;;35.50;20.33;;;13.40;99.90;;;;;;5084469;28;19934;-64
2021/08/30 06:58:28;;;;;;;;;;;13.40;99.90;;;;;;5086792;28;20043;-64
2021/08/30 07:00:54;;;;;;;30.98;19.67;;;13.50;99.90;;;;;;5086146;28;19916;-64
2021/08/30 07:03:19;;;;;;;;;;;13.40;99.90;;;;;;5078610;28;20479;-64
2021/08/30 07:05:45;;;;;;;41.30;22.23;;;13.40;99.90;;;;;;5083327;28;20330;-64
2021/08/30 07:08:10;;;;;;;;;;;13.40;99.90;;;;;;5078362;28;20309;-64
2021/08/30 07:10:36;;;;;;;29.52;17.58;;;13.40;99.90;;;;;;5076125;28;19977;-64
2021/08/30 07:13:02;;;;;;;;;;;13.50;99.90;;;;;;5077796;28;20063;-64
2021/08/30 07:15:27;;;;;;;29.75;18.13;;;13.40;99.90;;;;;;5075895;28;19924;-64
2021/08/30 07:17:53;;;;;;;33.30;20.23;;;13.50;99.90;;;;;;5075869;28;20032;-64
2021/08/30 07:20:19;;;;;;;;;;;13.50;99.90;;;;;;5075617;28;20032;-64
2021/08/30 07:22:44;;;;;;;36.30;20.98;;;13.50;99.90;;;;;;5075664;28;19912;-66
2021/08/30 07:25:10;;;;;;;;;;;13.50;99.90;;;;;;5073711;28;20041;-63
2021/08/30 07:27:36;;;;;;;41.58;23.13;;;13.50;99.90;;;;;;5076303;28;19920;-64
2021/08/30 07:30:02;;;;;;;;;;;13.60;99.90;;;;;;5074702;28;20043;-64
2021/08/30 07:32:28;;;;;;;33.08;19.65;;;13.50;99.90;;;;;;5077833;28;19970;-64
2021/08/30 07:34:54;;;;;;;40.53;21.88;;;13.60;99.90;;;;;;5078164;28;20475;-64
2021/08/30 07:37:19;;;;;;;;;;;13.60;99.90;;;;;;5079828;28;20458;-64
2021/08/30 07:39:45;;;;;;;35.47;21.52;;;13.60;99.90;;;;;;5079490;28;19916;-64
2021/08/30 07:42:11;;;;;;;;;;;13.60;99.90;;;;;;5073208;28;20038;-64
2021/08/30 07:44:37;;;;;;;34.28;20.13;;;13.60;99.90;;;;;;5070308;28;19916;-65
2021/08/30 07:47:03;;;;;;;;;;;13.60;99.90;;;;;;5069605;28;20067;-64
2021/08/30 07:49:29;;;;;;;34.08;20.02;;;13.60;99.90;;;;;;5070302;28;19916;-64
2021/08/30 07:51:55;;;;;;;;;;;13.60;99.90;;;;;;5081798;28;20058;-64
2021/08/30 07:54:20;;;;;;;33.00;19.63;;;13.70;99.90;;;;;;5090679;28;20284;-64
2021/08/30 07:56:46;;;;;;;;;;;13.70;99.90;;;;;;5091900;28;20044;-64
2021/08/30 07:59:11;;;;;;;33.67;18.95;;;13.80;99.90;;;;;;5087550;28;19924;-65
2021/08/30 08:01:37;;;;;;;;;;;13.80;99.90;;;;;;5084316;28;20075;-64
2021/08/30 08:04:03;;;;;;;32.20;18.85;;;13.80;99.90;;;;;;5081097;28;19920;-63
2021/08/30 08:06:29;;;;;;;;;;;13.80;99.90;;;;;;5087584;28;20048;-65
2021/08/30 08:08:54;;;;;;;33.95;20.95;;;13.70;99.90;;;;;;5078966;28;20049;-65
2021/08/30 08:11:20;;;;;;;;;;;13.70;99.90;;;;;;5080546;28;20048;-64
2021/08/30 08:13:46;;;;;;;34.92;19.98;;;13.70;99.90;;;;;;5079472;28;19923;-65
2021/08/30 08:16:12;;;;;;;;;;;13.70;99.90;;;;;;5088631;28;20666;-64
2021/08/30 08:18:38;;;;;;;28.95;18.35;;;13.70;99.90;;;;;;5087541;28;19920;-65
2021/08/30 08:21:04;;;;;;;;;;;13.80;99.90;;;;;;5085487;28;20040;-65
2021/08/30 08:23:31;;;;;;;36.10;19.17;;;13.80;99.90;;;;;;5084516;28;19924;-64
2021/08/30 08:25:57;;;;;;;33.67;19.15;;;13.80;99.90;;;;;;5090797;28;20553;-65
2021/08/30 08:28:22;;;;;;;;;;;13.80;99.90;;;;;;5085074;28;20044;-64
2021/08/30 08:30:48;;;;;;;30.63;18.10;;;13.80;99.90;;;;;;5089004;28;20067;-65
2021/08/30 08:33:18;;;;;;;;;;;13.80;99.90;;;;;;5084827;28;20098;-65
2021/08/30 08:35:44;;;;;;;33.38;19.80;;;13.70;99.90;;;;;;5084698;28;20454;-65
2021/08/30 08:38:10;;;;;;;;;;;13.70;99.90;;;;;;5088225;28;20128;-65
2021/08/30 08:40:36;;;;;;;32.45;17.67;;;13.70;99.90;;;;;;5087412;28;19946;-65
2021/08/30 08:43:02;;;;;;;30.83;17.63;;;13.70;99.90;;;;;;5085327;28;20040;-65
2021/08/30 08:45:28;;;;;;;;;;;13.70;99.90;;;;;;5078421;28;20048;-65
2021/08/30 08:47:54;;;;;;;27.13;17.08;;;13.70;99.90;;;;;;5084315;28;20002;-65
2021/08/30 08:50:22;;;;;;;26.95;17.00;;;13.70;99.90;;;;;;5083458;28;20105;-65
2021/08/30 08:52:49;;;;;;;29.80;17.58;;;13.70;99.90;;;;;;5079412;28;20044;-65
2021/08/30 08:55:16;;;;;;;29.05;17.20;;;13.80;99.90;;;;;;5087784;28;20123;-65
2021/08/30 08:57:43;;;;;;;25.08;16.50;;;13.80;99.90;;;;;;5077717;28;20521;-65
2021/08/30 09:00:14;;;;;;;29.10;15.85;;;13.80;99.90;;;;;;5083815;28;20411;-65
2021/08/30 09:02:40;;;;;;;28.70;17.95;;;13.90;99.90;;;;;;5075635;28;20074;-66
2021/08/30 09:05:07;;;;;;;;;;;13.80;99.90;;;;;;5076805;28;20037;-66
2021/08/30 09:07:42;;;;;;;31.63;18.30;;;13.80;99.90;;;;;;5082114;28;19920;-65
2021/08/30 09:10:18;;;;;;;25.80;16.00;;;13.90;99.90;;;;;;5081993;28;20047;-65
2021/08/30 09:12:47;;;;;;;26.95;17.63;;;13.90;99.90;;;;;;5081790;28;20044;-65
2021/08/30 09:15:23;;;;;;;28.55;16.83;;;13.90;99.90;;;;;;5082539;28;20469;-65
2021/08/30 09:17:54;;;;;;;25.80;16.67;;;13.90;99.90;;;;;;5075282;28;20044;-66
2021/08/30 09:20:22;;;;;;;26.05;16.08;;;13.90;99.90;;;;;;5075306;28;20451;-65
2021/08/30 09:22:48;;;;;;;27.98;17.85;;;13.90;99.90;;;;;;5085731;28;20040;-65
2021/08/30 09:25:14;;;;;;;;;;;13.90;99.90;;;;;;5079836;28;20043;-65
2021/08/30 09:27:44;;;;;;;37.20;17.00;;;13.90;99.90;;;;;;5082364;28;20410;-65
2021/08/30 09:30:12;;;;;;;35.22;18.42;;;13.90;99.90;;;;;;5086078;28;20597;-65
2021/08/30 09:32:40;;;;;;;33.85;18.30;;;14.00;99.90;;;;;;5085664;28;20372;-65
2021/08/30 09:35:07;;;;;;;29.27;17.35;;;14.00;99.90;;;;;;5088221;28;20036;-65
2021/08/30 09:37:39;;;;;;;26.75;17.88;;;14.00;99.90;;;;;;5088390;28;20039;-65
2021/08/30 09:40:11;;;;;;;25.35;16.02;;;13.90;99.90;;;;;;5084315;28;20054;-65
2021/08/30 09:42:44;;;;;;;24.55;16.00;;;14.00;99.90;;;;;;5078252;28;20039;-65
2021/08/30 09:45:15;;;;;;;25.23;17.52;;;14.00;99.90;;;;;;5086544;28;20044;-65
2021/08/30 09:47:57;;;;;;;26.15;16.88;;;14.00;99.90;;;;;;5084124;28;20040;-65
2021/08/30 09:50:34;;;;;;;23.65;14.32;;;14.00;99.90;;;;;;5075676;28;20043;-66
2021/08/30 09:53:01;;;;;;;26.38;15.77;;;14.00;99.90;;;;;;5082671;28;20051;-65
2021/08/30 09:55:28;;;;;;;22.92;15.32;;;14.00;99.90;;;;;;5087908;28;20044;-65
2021/08/30 09:57:54;;;;;;;56.88;31.20;;;14.00;99.90;;;;;;5079635;28;20055;-65
2021/08/30 10:00:20;;;;;;;;;;;14.00;99.90;;;;;;5085346;28;20052;-67
2021/08/30 10:02:53;;;;;;;28.13;17.35;;;14.00;99.90;;;;;;5080176;28;19923;-64
2021/08/30 10:05:20;;;;;;;29.63;18.23;;;14.00;99.90;;;;;;5076153;28;20090;-65
2021/08/30 10:07:48;;;;;;;28.50;18.02;;;13.90;99.90;;;;;;5079482;28;20048;-65
2021/08/30 10:10:15;;;;;;;31.35;14.68;;;13.90;99.90;;;;;;5080130;28;20044;-64
2021/08/30 10:12:42;;;;;;;24.88;14.73;;;13.90;99.90;;;;;;5088249;28;20062;-65
2021/08/30 10:15:09;;;;;;;23.15;15.05;;;13.90;99.90;;;;;;5077903;28;20052;-64
2021/08/30 10:17:38;;;;;;;22.23;14.95;;;13.90;99.90;;;;;;5079866;28;20487;-65
2021/08/30 10:20:04;;;;;;;22.05;14.35;;;13.90;99.90;;;;;;5079336;28;20040;-64
2021/08/30 10:22:31;;;;;;;23.52;15.68;;;13.90;99.90;;;;;;5075247;28;20051;-65
2021/08/30 10:24:56;;;;;;;36.95;17.60;;;13.90;99.90;;;;;;5078577;28;20048;-64
2021/08/30 10:27:29;;;;;;;;;;;13.90;99.90;;;;;;5079295;28;20047;-64
2021/08/30 10:30:07;;;;;;;28.35;17.90;;;13.90;99.90;;;;;;5073988;28;20330;-65
2021/08/30 10:32:38;;;;;;;24.67;16.45;;;13.90;99.90;;;;;;5073480;28;20044;-64
2021/08/30 10:35:17;;;;;;;26.90;16.63;;;14.00;99.90;;;;;;5076027;28;20568;-64
2021/08/30 10:37:59;;;;;;;24.95;16.15;;;13.90;99.90;;;;;;5078573;28;20051;-64
2021/08/30 10:40:28;;;;;;;22.63;15.60;;;13.90;99.90;;;;;;5082459;28;20048;-64
2021/08/30 10:43:14;;;;;;;26.75;17.17;;;14.00;99.90;;;;;;5079905;28;20040;-64
2021/08/30 10:45:43;;;;;;;23.35;16.45;;;14.00;99.90;;;;;;5075234;28;20036;-65
2021/08/30 10:48:14;;;;;;;22.33;16.15;;;14.10;99.90;;;;;;5077883;28;20036;-64
2021/08/30 10:50:47;;;;;;;24.52;16.27;;;14.10;99.90;;;;;;5077425;28;20071;-64
2021/08/30 10:53:18;;;;;;;25.02;15.65;;;14.10;99.90;;;;;;5075525;28;20054;-64
2021/08/30 10:55:47;;;;;;;22.33;15.27;;;14.10;99.90;;;;;;5075575;28;20106;-64
2021/08/30 10:58:24;;;;;;;23.48;14.80;;;14.10;99.90;;;;;;5074672;28;20078;-64
2021/08/30 11:00:52;;;;;;;27.48;15.23;;;14.10;99.90;;;;;;5075110;28;20064;-64
2021/08/30 11:03:35;;;;;;;21.45;14.27;;;14.20;99.90;;;;;;5073017;28;20479;-64
2021/08/30 11:06:07;;;;;;;23.67;15.13;;;14.10;99.90;;;;;;5075570;28;20047;-65
2021/08/30 11:08:35;;;;;;;23.92;15.15;;;14.20;99.90;;;;;;5077792;28;20040;-64
2021/08/30 11:11:11;;;;;;;22.40;14.23;;;14.10;99.90;;;;;;5074476;28;20063;-64
2021/08/30 11:13:38;;;;;;;24.30;15.02;;;14.10;99.90;;;;;;5069600;28;20125;-63
2021/08/30 11:16:15;;;;;;;26.58;15.63;;;14.20;99.90;;;;;;5074097;28;20523;-64
2021/08/30 11:19:01;;;;;;;;;;;14.20;99.90;;;;;;5074009;28;20036;-64
2021/08/30 11:21:51;;;;;;;22.90;14.40;;;14.30;99.90;;;;;;5073185;28;19921;-64
2021/08/30 11:24:39;;;;;;;24.08;14.80;;;14.30;99.90;;;;;;5073758;28;20060;-63
2021/08/30 11:27:08;;;;;;;21.52;14.38;;;14.40;99.90;;;;;;5074546;28;20051;-64
2021/08/30 11:29:40;;;;;;;29.90;15.48;;;14.40;99.90;;;;;;5073920;28;20089;-65
2021/08/30 11:32:06;;;;;;;21.02;14.23;;;14.40;99.90;;;;;;5074919;28;20040;-65
2021/08/30 11:34:36;;;;;;;23.08;15.15;;;14.40;99.90;;;;;;5074607;28;20135;-65
2021/08/30 11:37:04;;;;;;;25.15;15.68;;;14.40;99.90;;;;;;5075225;28;20622;-66
2021/08/30 11:39:32;;;;;;;22.48;14.48;;;14.30;99.90;;;;;;5076189;28;20097;-64
2021/08/30 11:42:02;;;;;;;23.48;15.07;;;14.30;99.90;;;;;;5074914;28;20384;-66
2021/08/30 11:44:33;;;;;;;20.80;13.77;;;14.30;99.90;;;;;;5072558;28;20040;-65
2021/08/30 11:47:02;;;;;;;19.13;12.95;;;14.40;99.90;;;;;;5070937;28;20056;-67
2021/08/30 11:49:31;;;;;;;23.00;14.32;;;14.60;99.90;;;;;;5073069;28;20545;-65
2021/08/30 11:52:01;;;;;;;23.20;14.00;;;14.60;99.90;;;;;;5073708;28;20067;-64
2021/08/30 11:54:32;;;;;;;17.48;12.35;;;14.80;99.90;;;;;;5074200;28;20051;-64
2021/08/30 11:57:01;;;;;;;18.48;12.52;;;15.10;99.90;;;;;;5074205;28;20043;-64
2021/08/30 11:59:35;;;;;;;20.83;13.23;;;15.30;99.90;;;;;;5074427;28;20039;-64
2021/08/30 12:02:02;;;;;;;20.35;12.43;;;15.30;99.90;;;;;;5074813;28;20037;-64
2021/08/30 12:04:32;;;;;;;18.75;12.77;;;15.30;99.90;;;;;;5075804;28;20089;-65
2021/08/30 12:07:00;;;;;;;18.23;12.30;;;15.20;99.90;;;;;;5075180;28;20062;-64
2021/08/30 12:09:46;;;;;;;18.98;13.02;;;15.20;99.90;;;;;;5075385;28;20511;-64
2021/08/30 12:12:25;;;;;;;19.70;13.32;;;15.30;99.90;;;;;;5073386;28;20081;-66
2021/08/30 12:15:01;;;;;;;21.10;12.48;;;15.30;99.90;;;;;;5077331;28;20044;-65
2021/08/30 12:17:28;;;;;;;18.85;11.48;;;15.20;99.90;;;;;;5077232;28;20179;-65
2021/08/30 12:20:00;;;;;;;17.75;10.57;;;15.20;99.90;;;;;;5077604;28;20052;-64
2021/08/30 12:22:31;;;;;;;17.13;11.02;;;15.10;99.90;;;;;;5077176;28;20045;-64
2021/08/30 12:25:06;;;;;;;17.00;10.50;;;15.10;99.90;;;;;;5077475;28;20122;-64
2021/08/30 12:27:34;;;;;;;13.93;9.68;;;15.00;99.90;;;;;;5076129;28;20062;-64
2021/08/30 12:30:15;;;;;;;16.08;10.32;;;15.10;99.90;;;;;;5078006;28;20127;-64
2021/08/30 12:32:54;;;;;;;16.45;11.10;;;15.00;99.90;;;;;;5075720;28;20047;-65
2021/08/30 12:35:26;;;;;;;20.80;11.60;;;15.10;99.90;;;;;;5078149;28;20044;-65
2021/08/30 12:37:53;;;;;;;18.15;12.10;;;15.00;99.90;;;;;;5078718;28;20052;-65
2021/08/30 12:40:20;;;;;;;17.52;10.77;;;15.00;99.90;;;;;;5077452;28;20051;-65
2021/08/30 12:42:45;;;;;;;20.58;12.10;;;15.00;99.90;;;;;;5077264;28;20071;-65
2021/08/30 12:45:11;;;;;;;;;;;15.00;99.90;;;;;;5077486;28;20121;-64
2021/08/30 12:47:37;;;;;;;16.35;10.70;;;15.00;99.90;;;;;;5075367;28;19988;-64
2021/08/30 12:50:03;;;;;;;;;;;15.10;99.90;;;;;;5077640;28;20053;-66
2021/08/30 12:52:29;;;;;;;23.05;9.43;;;15.20;99.90;;;;;;5074705;28;19920;-65
2021/08/30 12:54:54;;;;;;;;;;;15.30;99.90;;;;;;5076172;28;20047;-66
2021/08/30 12:57:20;;;;;;;20.17;11.55;;;15.40;99.90;;;;;;5075354;28;19923;-66
2021/08/30 12:59:46;;;;;;;20.52;9.98;;;15.50;99.90;;;;;;5074069;28;20649;-65